Time,TemperatureF,DewpointF,PressureIn,WindDirection,WindDirectionDegrees,WindSpeedMPH,WindSpeedGustMPH,Humidity,HourlyPrecipIn,Conditions,Clouds,dailyrainin,SoftwareType,DateUTC
2013-01-03 00:02:00,36.1,29.3,28.57,West,263,2.3,2.3,76,0.00,CLR,CLR,0.00,WeatherDisplay:10.37,2013-01-03 05:02:00,
2013-01-03 00:03:00,36.1,29.3,28.56,West,263,2.3,2.3,76,0.00,CLR,CLR,0.00,WeatherDisplay:10.37,2013-01-03 05:03:00,
2013-01-03 00:04:00,36.1,29.6,28.57,West,263,1.2,0.0,77,0.00,CLR,CLR,0.00,WeatherDisplay:10.37,2013-01-03 05:04:00,
2013-01-03 00:10:00,36.1,29.6,28.57,West,263,2.3,0.0,77,0.00,CLR,CLR,0.00,WeatherDisplay:10.37,2013-01-03 05:10:00,
2013-01-03 00:15:00,36.0,29.2,28.57,West,263,2.3,2.3,76,0.00,CLR,CLR,0.00,WeatherDisplay:10.37,2013-01-03 05:15:00,
2013-01-03 00:20:00,36.0,29.5,28.57,West,263,3.0,3.0,77,0.00,CLR,CLR,0.00,WeatherDisplay:10.37,2013-01-03 05:20:00,
2013-01-03 00:25:00,35.9,29.4,28.56,West,264,4.6,4.6,77,0.00,CLR,CLR,0.00,WeatherDisplay:10.37,2013-01-03 05:25:00,
2013-01-03 00:30:00,35.9,29.4,28.57,West,264,3.5,3.5,77,0.00,CLR,CLR,0.00,WeatherDisplay:10.37,2013-01-03 05:30:00,
2013-01-03 00:36:00,35.8,29.3,28.56,West,264,3.5,3.5,77,0.00,CLR,CLR,0.00,WeatherDisplay:10.37,2013-01-03 05:36:00,
2013-01-03 00:41:00,35.7,29.5,28.55,West,264,1.2,1.2,78,0.00,CLR,CLR,0.00,WeatherDisplay:10.37,2013-01-03 05:41:00,
2013-01-03 00:46:00,35.7,29.5,28.55,West,264,0.0,0.0,78,0.00,CLR,CLR,0.00,WeatherDisplay:10.37,2013-01-03 05:46:00,
2013-01-03 00:51:00,35.7,29.8,28.56,West,264,0.0,0.0,79,0.00,CLR,CLR,0.00,WeatherDisplay:10.37,2013-01-03 05:51:00,
2013-01-03 00:57:00,35.6,30.0,28.55,West,264,2.3,2.3,80,0.00,CLR,CLR,0.00,WeatherDisplay:10.37,2013-01-03 05:57:00,
2013-01-03 01:02:00,35.5,30.2,28.55,West,264,2.3,2.3,81,0.00,CLR,CLR,0.00,WeatherDisplay:10.37,2013-01-03 06:02:00,
2013-01-03 01:07:00,35.4,30.5,28.56,West,264,2.3,2.3,82,0.00,CLR,CLR,0.00,WeatherDisplay:10.37,2013-01-03 06:07:00,
2013-01-03 01:12:00,35.4,30.8,28.56,West,264,2.3,2.3,83,0.00,CLR,CLR,0.00,WeatherDisplay:10.37,2013-01-03 06:12:00,
2013-01-03 01:17:00,35.3,30.9,28.56,West,264,0.0,0.0,84,0.00,CLR,CLR,0.00,WeatherDisplay:10.37,2013-01-03 06:17:00,
2013-01-03 01:23:00,35.2,31.1,28.56,West,264,1.2,1.2,85,0.00,CLR,CLR,0.00,WeatherDisplay:10.37,2013-01-03 06:23:00,
2013-01-03 01:28:00,35.2,30.6,28.56,West,264,0.0,0.0,83,0.00,CLR,CLR,0.00,WeatherDisplay:10.37,2013-01-03 06:28:00,
2013-01-03 01:33:00,35.2,30.6,28.56,West,264,0.0,0.0,83,0.00,CLR,CLR,0.00,WeatherDisplay:10.37,2013-01-03 06:33:00,
2013-01-03 01:38:00,35.2,30.6,28.56,West,264,0.0,0.0,83,0.00,CLR,CLR,0.00,WeatherDisplay:10.37,2013-01-03 06:38:00,
2013-01-03 01:43:00,35.1,30.5,28.56,West,264,0.0,0.0,83,0.00,CLR,CLR,0.00,WeatherDisplay:10.37,2013-01-03 06:43:00,
2013-01-03 01:49:00,35.2,30.9,28.56,West,264,0.0,0.0,84,0.00,CLR,CLR,0.00,WeatherDisplay:10.37,2013-01-03 06:49:00,
2013-01-03 01:54:00,35.2,30.9,28.57,West,264,0.0,0.0,84,0.00,CLR,CLR,0.00,WeatherDisplay:10.37,2013-01-03 06:54:00,
2013-01-03 01:59:00,35.2,31.1,28.56,West,264,0.0,0.0,85,0.00,CLR,CLR,0.00,WeatherDisplay:10.37,2013-01-03 06:59:00,
2013-01-03 02:04:00,35.1,31.0,28.56,West,264,0.0,0.0,85,0.00,CLR,CLR,0.00,WeatherDisplay:10.37,2013-01-03 07:04:00,
2013-01-03 02:10:00,35.0,30.9,28.56,West,264,0.0,0.0,85,0.00,CLR,CLR,0.00,WeatherDisplay:10.37,2013-01-03 07:10:00,
2013-01-03 02:15:00,35.0,31.2,28.56,West,264,0.0,0.0,86,0.00,CLR,CLR,0.00,WeatherDisplay:10.37,2013-01-03 07:15:00,
2013-01-03 02:20:00,35.1,31.3,28.56,West,264,0.0,0.0,86,0.00,CLR,CLR,0.00,WeatherDisplay:10.37,2013-01-03 07:20:00,
2013-01-03 02:26:00,35.1,31.6,28.57,West,264,0.0,0.0,87,0.00,CLR,CLR,0.00,WeatherDisplay:10.37,2013-01-03 07:26:00,
2013-01-03 02:31:00,35.1,31.6,28.57,West,264,0.0,0.0,87,0.00,CLR,CLR,0.00,WeatherDisplay:10.37,2013-01-03 07:31:00,
2013-01-03 02:36:00,35.1,31.6,28.57,West,264,0.0,0.0,87,0.00,CLR,CLR,0.00,WeatherDisplay:10.37,2013-01-03 07:36:00,
2013-01-03 02:41:00,35.1,31.9,28.56,West,264,0.0,0.0,88,0.00,CLR,CLR,0.00,WeatherDisplay:10.37,2013-01-03 07:41:00,
2013-01-03 02:46:00,35.1,31.9,28.57,West,264,0.0,0.0,88,0.00,CLR,CLR,0.00,WeatherDisplay:10.37,2013-01-03 07:46:00,
2013-01-03 02:51:00,35.1,31.9,28.57,West,264,0.0,0.0,88,0.00,CLR,CLR,0.00,WeatherDisplay:10.37,2013-01-03 07:51:00,
2013-01-03 02:57:00,35.1,31.9,28.57,West,264,0.0,0.0,88,0.00,CLR,CLR,0.00,WeatherDisplay:10.37,2013-01-03 07:57:00,
2013-01-03 03:02:00,35.2,31.7,28.57,West,264,0.0,0.0,87,0.00,CLR,CLR,0.00,WeatherDisplay:10.37,2013-01-03 08:02:00,
2013-01-03 03:07:00,35.2,31.4,28.57,West,264,0.0,0.0,86,0.00,CLR,CLR,0.00,WeatherDisplay:10.37,2013-01-03 08:07:00,
2013-01-03 03:12:00,35.2,31.1,28.57,West,264,0.0,0.0,85,0.00,CLR,CLR,0.00,WeatherDisplay:10.37,2013-01-03 08:12:00,
2013-01-03 03:18:00,35.2,31.1,28.57,West,264,0.0,0.0,85,0.00,CLR,CLR,0.00,WeatherDisplay:10.37,2013-01-03 08:18:00,
2013-01-03 03:23:00,35.2,30.9,28.56,West,264,0.0,0.0,84,0.00,CLR,CLR,0.00,WeatherDisplay:10.37,2013-01-03 08:23:00,
2013-01-03 03:28:00,35.2,31.1,28.56,West,264,0.0,0.0,85,0.00,CLR,CLR,0.00,WeatherDisplay:10.37,2013-01-03 08:28:00,
2013-01-03 03:33:00,35.3,31.2,28.56,West,264,0.0,0.0,85,0.00,CLR,CLR,0.00,WeatherDisplay:10.37,2013-01-03 08:33:00,
2013-01-03 03:39:00,35.3,30.9,28.56,West,264,0.0,0.0,84,0.00,CLR,CLR,0.00,WeatherDisplay:10.37,2013-01-03 08:39:00,
2013-01-03 03:44:00,35.3,30.9,28.56,West,264,0.0,0.0,84,0.00,CLR,CLR,0.00,WeatherDisplay:10.37,2013-01-03 08:44:00,
2013-01-03 03:49:00,35.3,30.7,28.56,West,264,0.0,0.0,83,0.00,CLR,CLR,0.00,WeatherDisplay:10.37,2013-01-03 08:49:00,
2013-01-03 03:54:00,35.3,30.7,28.56,West,264,0.0,0.0,83,0.00,CLR,CLR,0.00,WeatherDisplay:10.37,2013-01-03 08:54:00,
2013-01-03 03:59:00,35.3,30.4,28.55,West,264,0.0,0.0,82,0.00,CLR,CLR,0.00,WeatherDisplay:10.37,2013-01-03 08:59:00,
2013-01-03 04:04:00,35.3,30.9,28.56,West,264,0.0,0.0,84,0.00,CLR,CLR,0.00,WeatherDisplay:10.37,2013-01-03 09:04:00,
2013-01-03 04:10:00,35.3,31.5,28.56,West,264,0.0,0.0,86,0.00,CLR,CLR,0.00,WeatherDisplay:10.37,2013-01-03 09:10:00,
2013-01-03 04:15:00,35.3,31.2,28.56,West,264,0.0,0.0,85,0.00,CLR,CLR,0.00,WeatherDisplay:10.37,2013-01-03 09:15:00,
2013-01-03 04:20:00,35.2,31.1,28.55,West,264,0.0,0.0,85,0.00,CLR,CLR,0.00,WeatherDisplay:10.37,2013-01-03 09:20:00,
2013-01-03 04:26:00,35.2,31.4,28.56,West,264,0.0,0.0,86,0.00,CLR,CLR,0.00,WeatherDisplay:10.37,2013-01-03 09:26:00,
2013-01-03 04:31:00,35.2,31.4,28.55,West,264,0.0,0.0,86,0.00,CLR,CLR,0.00,WeatherDisplay:10.37,2013-01-03 09:31:00,
2013-01-03 04:36:00,35.2,31.7,28.55,West,264,0.0,0.0,87,0.00,CLR,CLR,0.00,WeatherDisplay:10.37,2013-01-03 09:36:00,
2013-01-03 04:41:00,35.2,31.7,28.55,West,264,0.0,0.0,87,0.00,CLR,CLR,0.00,WeatherDisplay:10.37,2013-01-03 09:41:00,
2013-01-03 04:46:00,35.1,31.3,28.55,West,264,0.0,0.0,86,0.00,CLR,CLR,0.00,WeatherDisplay:10.37,2013-01-03 09:46:00,
2013-01-03 04:52:00,35.1,31.3,28.55,West,264,0.0,0.0,86,0.00,CLR,CLR,0.00,WeatherDisplay:10.37,2013-01-03 09:52:00,
2013-01-03 04:57:00,35.1,31.3,28.55,West,264,0.0,0.0,86,0.00,CLR,CLR,0.00,WeatherDisplay:10.37,2013-01-03 09:57:00,
2013-01-03 05:02:00,35.1,31.9,28.55,West,264,1.2,1.2,88,0.00,CLR,CLR,0.00,WeatherDisplay:10.37,2013-01-03 10:02:00,
2013-01-03 05:07:00,35.0,31.8,28.55,West,264,0.0,0.0,88,0.00,CLR,CLR,0.00,WeatherDisplay:10.37,2013-01-03 10:07:00,
2013-01-03 05:12:00,35.0,31.8,28.55,West,264,0.0,0.0,88,0.00,CLR,CLR,0.00,WeatherDisplay:10.37,2013-01-03 10:12:00,
2013-01-03 05:17:00,35.0,32.1,28.56,West,264,0.0,0.0,89,0.00,CLR,CLR,0.00,WeatherDisplay:10.37,2013-01-03 10:17:00,
2013-01-03 05:23:00,34.9,31.7,28.56,West,264,0.0,0.0,88,0.00,CLR,CLR,0.00,WeatherDisplay:10.37,2013-01-03 10:23:00,
2013-01-03 05:28:00,34.9,31.4,28.55,West,264,0.0,0.0,87,0.00,CLR,CLR,0.00,WeatherDisplay:10.37,2013-01-03 10:28:00,
2013-01-03 05:33:00,34.9,31.7,28.56,West,264,0.0,0.0,88,0.00,CLR,CLR,0.00,WeatherDisplay:10.37,2013-01-03 10:33:00,
2013-01-03 05:38:00,35.0,31.5,28.56,West,264,0.0,0.0,87,0.00,CLR,CLR,0.00,WeatherDisplay:10.37,2013-01-03 10:38:00,
2013-01-03 05:43:00,35.0,31.5,28.56,West,264,0.0,0.0,87,0.00,CLR,CLR,0.00,WeatherDisplay:10.37,2013-01-03 10:43:00,
2013-01-03 05:48:00,35.0,31.5,28.56,West,264,0.0,0.0,87,0.00,CLR,CLR,0.00,WeatherDisplay:10.37,2013-01-03 10:48:00,
2013-01-03 05:54:00,35.0,31.2,28.60,West,264,0.0,0.0,86,0.00,CLR,CLR,0.00,WeatherDisplay:10.37,2013-01-03 10:54:00,
2013-01-03 05:59:00,35.1,31.3,28.60,West,264,0.0,0.0,86,0.00,CLR,CLR,0.00,WeatherDisplay:10.37,2013-01-03 10:59:00,
2013-01-03 06:04:00,35.1,31.3,28.61,West,264,0.0,0.0,86,0.00,CLR,CLR,0.00,WeatherDisplay:10.37,2013-01-03 11:04:00,
2013-01-03 06:10:00,35.1,31.3,28.62,West,264,0.0,0.0,86,0.00,CLR,CLR,0.00,WeatherDisplay:10.37,2013-01-03 11:10:00,
2013-01-03 06:15:00,35.1,31.3,28.61,West,264,0.0,0.0,86,0.00,CLR,CLR,0.00,WeatherDisplay:10.37,2013-01-03 11:15:00,
2013-01-03 06:20:00,35.0,30.9,28.61,West,264,0.0,0.0,85,0.00,CLR,CLR,0.00,WeatherDisplay:10.37,2013-01-03 11:20:00,
2013-01-03 06:25:00,34.9,30.8,28.62,West,264,0.0,0.0,85,0.00,CLR,CLR,0.00,WeatherDisplay:10.37,2013-01-03 11:25:00,
2013-01-03 06:30:00,34.8,30.5,28.62,West,264,0.0,0.0,84,0.00,CLR,CLR,0.00,WeatherDisplay:10.37,2013-01-03 11:30:00,
2013-01-03 06:35:00,34.7,30.4,28.63,West,264,0.0,0.0,84,0.00,CLR,CLR,0.00,WeatherDisplay:10.37,2013-01-03 11:35:00,
2013-01-03 06:40:00,34.7,30.4,28.63,West,264,0.0,0.0,84,0.00,CLR,CLR,0.00,WeatherDisplay:10.37,2013-01-03 11:40:00,
2013-01-03 06:46:00,34.7,30.7,28.63,West,264,0.0,0.0,85,0.00,CLR,CLR,0.00,WeatherDisplay:10.37,2013-01-03 11:46:00,
2013-01-03 06:51:00,34.5,30.2,28.62,West,264,0.0,0.0,84,0.00,CLR,CLR,0.00,WeatherDisplay:10.37,2013-01-03 11:51:00,
2013-01-03 06:56:00,34.4,29.2,28.63,West,264,1.2,0.0,81,0.00,CLR,CLR,0.00,WeatherDisplay:10.37,2013-01-03 11:56:00,
2013-01-03 07:01:00,34.4,29.2,28.64,West,264,0.0,0.0,81,0.00,CLR,CLR,0.00,WeatherDisplay:10.37,2013-01-03 12:01:00,
2013-01-03 07:06:00,34.4,28.6,28.98,West,264,0.0,0.0,79,0.00,CLR,CLR,0.00,WeatherDisplay:10.37,2013-01-03 12:06:00,
2013-01-03 07:12:00,34.4,28.9,28.99,West,264,2.0,2.0,80,0.00,CLR,CLR,0.00,WeatherDisplay:10.37,2013-01-03 12:12:00,
2013-01-03 07:17:00,34.4,29.5,28.99,West,264,1.2,1.2,82,0.00,CLR,CLR,0.00,WeatherDisplay:10.37,2013-01-03 12:17:00,
2013-01-03 07:22:00,34.4,29.8,28.99,West,264,0.0,0.0,83,0.00,CLR,CLR,0.00,WeatherDisplay:10.37,2013-01-03 12:22:00,
2013-01-03 07:27:00,34.3,30.0,28.95,West,264,1.2,0.0,84,0.00,CLR,CLR,0.00,WeatherDisplay:10.37,2013-01-03 12:27:00,
2013-01-03 07:32:00,34.3,30.5,29.03,West,264,2.3,2.3,86,0.00,CLR,CLR,0.00,WeatherDisplay:10.37,2013-01-03 12:32:00,
2013-01-03 07:38:00,34.2,30.4,29.04,West,264,3.5,3.5,86,0.00,CLR,CLR,0.00,WeatherDisplay:10.37,2013-01-03 12:38:00,
2013-01-03 07:43:00,34.1,30.6,29.09,West,264,1.2,0.0,87,0.00,CLR,CLR,0.00,WeatherDisplay:10.37,2013-01-03 12:43:00,
2013-01-03 07:48:00,34.0,30.8,29.07,West,264,0.0,0.0,88,0.00,CLR,CLR,0.00,WeatherDisplay:10.37,2013-01-03 12:48:00,
2013-01-03 07:53:00,33.9,31.0,29.06,West,264,0.0,0.0,89,0.00,CLR,CLR,0.00,WeatherDisplay:10.37,2013-01-03 12:53:00,
2013-01-03 07:58:00,33.9,31.3,28.98,West,264,1.2,0.0,90,0.00,CLR,CLR,0.00,WeatherDisplay:10.37,2013-01-03 12:58:00,
2013-01-03 08:03:00,33.8,31.2,29.01,West,264,0.0,0.0,90,0.00,CLR,CLR,0.00,WeatherDisplay:10.37,2013-01-03 13:03:00,
2013-01-03 08:09:00,33.8,31.2,29.00,West,264,0.0,0.0,90,0.00,CLR,CLR,0.00,WeatherDisplay:10.37,2013-01-03 13:09:00,
2013-01-03 08:14:00,33.8,31.2,29.03,West,264,0.0,0.0,90,0.00,CLR,CLR,0.00,WeatherDisplay:10.37,2013-01-03 13:14:00,
2013-01-03 08:19:00,33.8,31.2,29.02,West,264,2.3,2.3,90,0.00,CLR,CLR,0.00,WeatherDisplay:10.37,2013-01-03 13:19:00,
2013-01-03 08:24:00,33.7,30.8,28.98,West,264,1.2,1.2,89,0.00,CLR,CLR,0.00,WeatherDisplay:10.37,2013-01-03 13:24:00,
2013-01-03 08:29:00,33.7,31.1,28.97,West,264,2.3,0.0,90,0.00,CLR,CLR,0.00,WeatherDisplay:10.37,2013-01-03 13:29:00,
2013-01-03 08:35:00,33.8,31.5,28.97,West,264,0.0,0.0,91,0.00,CLR,CLR,0.00,WeatherDisplay:10.37,2013-01-03 13:35:00,
2013-01-03 08:40:00,33.8,31.5,29.03,West,264,0.0,0.0,91,0.00,CLR,CLR,0.00,WeatherDisplay:10.37,2013-01-03 13:40:00,
2013-01-03 08:45:00,33.9,31.6,29.01,West,264,0.0,0.0,91,0.00,CLR,CLR,0.00,WeatherDisplay:10.37,2013-01-03 13:45:00,
2013-01-03 08:50:00,33.9,31.8,29.01,West,264,0.0,0.0,92,0.00,CLR,CLR,0.00,WeatherDisplay:10.37,2013-01-03 13:50:00,
2013-01-03 08:55:00,33.9,31.6,28.98,West,264,0.0,0.0,91,0.00,CLR,CLR,0.00,WeatherDisplay:10.37,2013-01-03 13:55:00,
2013-01-03 09:01:00,33.9,31.8,28.98,West,264,0.0,0.0,92,0.00,CLR,CLR,0.00,WeatherDisplay:10.37,2013-01-03 14:01:00,
2013-01-03 09:06:00,34.0,31.9,28.97,West,264,0.0,0.0,92,0.00,CLR,CLR,0.00,WeatherDisplay:10.37,2013-01-03 14:06:00,
2013-01-03 09:11:00,34.1,32.0,29.04,West,264,0.0,0.0,92,0.00,CLR,CLR,0.00,WeatherDisplay:10.37,2013-01-03 14:11:00,
2013-01-03 09:16:00,34.2,32.1,29.01,West,264,0.0,0.0,92,0.00,CLR,CLR,0.00,WeatherDisplay:10.37,2013-01-03 14:16:00,
2013-01-03 09:21:00,34.2,32.1,29.08,West,264,0.0,0.0,92,0.00,CLR,CLR,0.00,WeatherDisplay:10.37,2013-01-03 14:21:00,
2013-01-03 09:26:00,34.3,31.9,29.02,West,264,0.0,0.0,91,0.00,CLR,CLR,0.00,WeatherDisplay:10.37,2013-01-03 14:26:00,
2013-01-03 09:31:00,34.3,32.2,28.98,West,264,0.0,0.0,92,0.00,CLR,CLR,0.00,WeatherDisplay:10.37,2013-01-03 14:31:00,
2013-01-03 09:36:00,34.3,31.9,29.06,West,264,0.0,0.0,91,0.00,CLR,CLR,0.00,WeatherDisplay:10.37,2013-01-03 14:36:00,
2013-01-03 09:42:00,34.4,32.0,29.02,West,264,0.0,0.0,91,0.00,CLR,CLR,0.00,WeatherDisplay:10.37,2013-01-03 14:42:00,
2013-01-03 09:47:00,34.5,32.1,29.05,West,264,0.0,0.0,91,0.00,CLR,CLR,0.00,WeatherDisplay:10.37,2013-01-03 14:47:00,
2013-01-03 09:52:00,34.7,32.3,29.03,West,264,0.0,0.0,91,0.00,CLR,CLR,0.00,WeatherDisplay:10.37,2013-01-03 14:52:00,
2013-01-03 09:57:00,34.8,32.2,29.04,West,264,0.0,0.0,90,0.00,CLR,CLR,0.00,WeatherDisplay:10.37,2013-01-03 14:57:00,
2013-01-03 10:03:00,34.9,32.3,29.02,West,264,0.0,0.0,90,0.00,CLR,CLR,0.00,WeatherDisplay:10.37,2013-01-03 15:03:00,
2013-01-03 10:08:00,35.0,32.4,28.99,West,264,0.0,0.0,90,0.00,CLR,CLR,0.00,WeatherDisplay:10.37,2013-01-03 15:08:00,
2013-01-03 10:13:00,35.0,32.1,28.99,West,264,0.0,0.0,89,0.00,CLR,CLR,0.00,WeatherDisplay:10.37,2013-01-03 15:13:00,
2013-01-03 10:18:00,35.2,32.6,28.98,West,264,0.0,0.0,90,0.00,CLR,CLR,0.00,WeatherDisplay:10.37,2013-01-03 15:18:00,
2013-01-03 10:23:00,35.4,32.8,29.03,West,264,0.0,0.0,90,0.00,CLR,CLR,0.00,WeatherDisplay:10.37,2013-01-03 15:23:00,
2013-01-03 10:29:00,35.5,32.9,28.97,West,264,1.2,0.0,90,0.00,CLR,CLR,0.00,WeatherDisplay:10.37,2013-01-03 15:29:00,
2013-01-03 10:34:00,35.7,33.3,29.07,West,264,0.0,0.0,91,0.00,CLR,CLR,0.00,WeatherDisplay:10.37,2013-01-03 15:34:00,
2013-01-03 10:39:00,35.8,33.2,29.03,West,264,0.0,0.0,90,0.00,CLR,CLR,0.00,WeatherDisplay:10.37,2013-01-03 15:39:00,
2013-01-03 10:44:00,35.8,33.2,29.04,West,264,1.2,0.0,90,0.00,CLR,CLR,0.00,WeatherDisplay:10.37,2013-01-03 15:44:00,
2013-01-03 10:49:00,36.0,33.4,29.07,West,264,1.0,1.0,90,0.00,CLR,CLR,0.00,WeatherDisplay:10.37,2013-01-03 15:49:00,
2013-01-03 10:54:00,36.1,33.5,29.00,West,264,0.0,0.0,90,0.00,CLR,CLR,0.00,WeatherDisplay:10.37,2013-01-03 15:54:00,
2013-01-03 11:00:00,36.2,33.5,29.02,West,266,0.0,0.0,90,0.00,CLR,CLR,0.00,WeatherDisplay:10.37,2013-01-03 16:00:00,
2013-01-03 11:05:00,36.2,33.5,29.02,West,265,0.0,0.0,90,0.00,CLR,CLR,0.00,WeatherDisplay:10.37,2013-01-03 16:05:00,
2013-01-03 11:10:00,36.3,33.6,29.02,West,265,0.0,0.0,90,0.00,CLR,CLR,0.00,WeatherDisplay:10.37,2013-01-03 16:10:00,
2013-01-03 11:15:00,36.4,33.7,29.01,West,265,0.0,0.0,90,0.00,CLR,CLR,0.00,WeatherDisplay:10.37,2013-01-03 16:15:00,
2013-01-03 11:20:00,36.6,33.9,29.06,West,265,0.0,0.0,90,0.00,CLR,CLR,0.00,WeatherDisplay:10.37,2013-01-03 16:20:00,
2013-01-03 11:25:00,36.7,34.0,29.00,West,265,0.0,0.0,90,0.00,CLR,CLR,0.00,WeatherDisplay:10.37,2013-01-03 16:25:00,
2013-01-03 11:30:00,36.9,34.5,29.06,West,265,0.0,0.0,91,0.00,CLR,CLR,0.00,WeatherDisplay:10.37,2013-01-03 16:30:00,
2013-01-03 11:35:00,37.1,34.4,28.99,West,265,0.0,0.0,90,0.00,CLR,CLR,0.00,WeatherDisplay:10.37,2013-01-03 16:35:00,
2013-01-03 11:40:00,37.4,34.7,28.98,West,265,0.0,0.0,90,0.00,CLR,CLR,0.00,WeatherDisplay:10.37,2013-01-03 16:40:00,
2013-01-03 11:46:00,37.5,34.6,28.97,West,265,3.0,3.0,89,0.00,CLR,CLR,0.00,WeatherDisplay:10.37,2013-01-03 16:46:00,
2013-01-03 11:51:00,37.5,34.6,29.02,West,265,0.0,0.0,89,0.00,CLR,CLR,0.00,WeatherDisplay:10.37,2013-01-03 16:51:00,
2013-01-03 11:56:00,37.5,34.6,29.03,West,265,1.2,1.2,89,0.00,CLR,CLR,0.00,WeatherDisplay:10.37,2013-01-03 16:56:00,
2013-01-03 12:01:00,37.5,34.6,29.03,West,265,0.0,0.0,89,0.00,CLR,CLR,0.00,WeatherDisplay:10.37,2013-01-03 17:01:00,
2013-01-03 12:06:00,37.5,34.6,28.99,West,265,0.0,0.0,89,0.00,CLR,CLR,0.00,WeatherDisplay:10.37,2013-01-03 17:06:00,
2013-01-03 12:12:00,37.6,34.7,29.02,West,265,1.2,1.2,89,0.00,CLR,CLR,0.00,WeatherDisplay:10.37,2013-01-03 17:12:00,
2013-01-03 12:17:00,37.7,34.8,28.98,West,265,0.0,0.0,89,0.00,CLR,CLR,0.00,WeatherDisplay:10.37,2013-01-03 17:17:00,
2013-01-03 12:22:00,37.8,34.8,28.98,West,265,1.2,1.2,89,0.00,CLR,CLR,0.00,WeatherDisplay:10.37,2013-01-03 17:22:00,
2013-01-03 12:27:00,37.8,34.8,28.97,West,265,0.0,0.0,89,0.00,CLR,CLR,0.00,WeatherDisplay:10.37,2013-01-03 17:27:00,
2013-01-03 12:32:00,37.9,34.7,28.95,West,265,0.0,0.0,88,0.00,CLR,CLR,0.00,WeatherDisplay:10.37,2013-01-03 17:32:00,
2013-01-03 12:38:00,38.0,34.8,28.97,West,265,2.3,2.3,88,0.00,CLR,CLR,0.00,WeatherDisplay:10.37,2013-01-03 17:38:00,
2013-01-03 12:43:00,38.1,34.9,28.98,West,265,1.2,1.2,88,0.00,CLR,CLR,0.00,WeatherDisplay:10.37,2013-01-03 17:43:00,
2013-01-03 12:48:00,38.3,35.3,28.98,West,265,0.0,0.0,89,0.00,CLR,CLR,0.00,WeatherDisplay:10.37,2013-01-03 17:48:00,
2013-01-03 12:53:00,38.5,35.3,28.97,West,265,0.0,0.0,88,0.00,CLR,CLR,0.00,WeatherDisplay:10.37,2013-01-03 17:53:00,
2013-01-03 12:58:00,38.5,35.0,28.96,West,265,0.0,0.0,87,0.00,CLR,CLR,0.00,WeatherDisplay:10.37,2013-01-03 17:58:00,
2013-01-03 13:03:00,38.6,34.8,28.94,West,265,1.0,1.0,86,0.00,CLR,CLR,0.00,WeatherDisplay:10.37,2013-01-03 18:03:00,
2013-01-03 13:08:00,38.7,35.2,28.92,West,266,3.5,3.5,87,0.00,CLR,CLR,0.00,WeatherDisplay:10.37,2013-01-03 18:08:00,
2013-01-03 13:14:00,38.9,35.1,28.93,West,268,2.3,2.3,86,0.00,CLR,CLR,0.00,WeatherDisplay:10.37,2013-01-03 18:14:00,
2013-01-03 13:19:00,39.0,35.2,29.05,West,268,1.0,1.0,86,0.00,CLR,CLR,0.00,WeatherDisplay:10.37,2013-01-03 18:19:00,
2013-01-03 13:24:00,39.1,35.3,29.12,West,268,0.0,0.0,86,0.00,CLR,CLR,0.00,WeatherDisplay:10.37,2013-01-03 18:24:00,
2013-01-03 13:29:00,39.5,35.7,28.96,West,268,2.3,2.3,86,0.00,CLR,CLR,0.00,WeatherDisplay:10.37,2013-01-03 18:29:00,
2013-01-03 13:34:00,39.8,36.0,28.97,West,268,2.3,0.0,86,0.00,CLR,CLR,0.00,WeatherDisplay:10.37,2013-01-03 18:34:00,
2013-01-03 13:39:00,40.0,35.6,28.97,West,267,3.5,3.5,84,0.00,CLR,CLR,0.00,WeatherDisplay:10.37,2013-01-03 18:39:00,
2013-01-03 13:44:00,40.3,35.5,28.91,SW,236,4.6,4.6,83,0.00,CLR,CLR,0.00,WeatherDisplay:10.37,2013-01-03 18:44:00,
2013-01-03 13:49:00,40.3,34.6,28.93,NW,310,5.8,5.8,80,0.00,CLR,CLR,0.00,WeatherDisplay:10.37,2013-01-03 18:49:00,
2013-01-03 13:54:00,40.4,34.1,28.98,WSW,253,2.3,2.3,78,0.00,CLR,CLR,0.00,WeatherDisplay:10.37,2013-01-03 18:54:00,
2013-01-03 13:59:00,40.4,34.1,28.97,WNW,290,6.9,6.9,78,0.00,CLR,CLR,0.00,WeatherDisplay:10.37,2013-01-03 18:59:00,
2013-01-03 14:04:00,40.5,34.2,28.98,North,7,6.0,6.0,78,0.00,CLR,CLR,0.00,WeatherDisplay:10.37,2013-01-03 19:04:00,
2013-01-03 14:10:00,40.7,34.4,29.06,NW,314,4.6,4.6,78,0.00,CLR,CLR,0.00,WeatherDisplay:10.37,2013-01-03 19:10:00,
2013-01-03 14:15:00,41.0,34.7,29.10,WSW,249,5.8,5.8,78,0.00,CLR,CLR,0.00,WeatherDisplay:10.37,2013-01-03 19:15:00,
2013-01-03 14:51:00,41.0,32.0,29.01,WNW,285,6.0,6.0,70,0.00,CLR,CLR,0.00,WeatherDisplay:10.37,2013-01-03 19:51:00,
2013-01-03 14:56:00,41.0,32.0,29.04,NW,304,2.3,2.3,70,0.00,CLR,CLR,0.00,WeatherDisplay:10.37,2013-01-03 19:56:00,
2013-01-03 15:01:00,41.1,32.1,29.04,NW,304,0.0,0.0,70,0.00,CLR,CLR,0.00,WeatherDisplay:10.37,2013-01-03 20:01:00,
2013-01-03 15:07:00,41.3,32.6,29.04,WNW,299,1.2,1.2,71,0.00,CLR,CLR,0.00,WeatherDisplay:10.37,2013-01-03 20:07:00,
2013-01-03 15:12:00,41.5,32.4,29.07,WSW,251,4.0,4.0,70,0.00,CLR,CLR,0.00,WeatherDisplay:10.37,2013-01-03 20:12:00,
2013-01-03 15:17:00,41.4,32.0,29.02,WSW,254,2.0,2.0,69,0.00,CLR,CLR,0.00,WeatherDisplay:10.37,2013-01-03 20:17:00,
2013-01-03 15:23:00,41.4,32.0,29.06,WSW,255,2.3,2.3,69,0.00,CLR,CLR,0.00,WeatherDisplay:10.37,2013-01-03 20:23:00,
2013-01-03 15:28:00,41.4,32.0,29.08,WSW,255,0.0,0.0,69,0.00,CLR,CLR,0.00,WeatherDisplay:10.37,2013-01-03 20:28:00,
2013-01-03 15:33:00,41.4,32.0,29.04,WSW,255,0.0,0.0,69,0.00,CLR,CLR,0.00,WeatherDisplay:10.37,2013-01-03 20:33:00,
2013-01-03 15:38:00,41.4,32.0,29.03,WSW,255,1.2,1.2,69,0.00,CLR,CLR,0.00,WeatherDisplay:10.37,2013-01-03 20:38:00,
2013-01-03 15:43:00,41.4,32.0,29.06,WSW,255,2.3,2.3,69,0.00,CLR,CLR,0.00,WeatherDisplay:10.37,2013-01-03 20:43:00,
2013-01-03 15:48:00,41.5,32.1,29.06,WSW,255,1.2,0.0,69,0.00,CLR,CLR,0.00,WeatherDisplay:10.37,2013-01-03 20:48:00,
2013-01-03 15:53:00,41.6,31.4,29.07,WSW,255,3.5,3.5,67,0.00,CLR,CLR,0.00,WeatherDisplay:10.37,2013-01-03 20:53:00,
2013-01-03 15:59:00,41.7,31.9,29.00,WSW,243,2.3,0.0,68,0.00,CLR,CLR,0.00,WeatherDisplay:10.37,2013-01-03 20:59:00,
2013-01-03 16:04:00,41.7,33.7,29.07,South,177,1.2,1.2,73,0.00,CLR,CLR,0.00,WeatherDisplay:10.37,2013-01-03 21:04:00,
2013-01-03 16:09:00,41.5,34.8,29.02,South,176,0.0,0.0,77,0.00,CLR,CLR,0.00,WeatherDisplay:10.37,2013-01-03 21:09:00,
2013-01-03 16:14:00,41.3,34.6,29.00,South,176,0.0,0.0,77,0.00,CLR,CLR,0.00,WeatherDisplay:10.37,2013-01-03 21:14:00,
2013-01-03 16:19:00,41.0,34.3,29.02,South,176,2.3,2.3,77,0.00,CLR,CLR,0.00,WeatherDisplay:10.37,2013-01-03 21:19:00,
2013-01-03 16:25:00,40.7,34.0,28.97,South,176,0.0,0.0,77,0.00,CLR,CLR,0.00,WeatherDisplay:10.37,2013-01-03 21:25:00,
2013-01-03 16:30:00,40.4,33.8,29.02,South,176,2.3,2.3,77,0.00,CLR,CLR,0.00,WeatherDisplay:10.37,2013-01-03 21:30:00,
2013-01-03 16:35:00,40.0,33.4,28.99,South,171,0.0,0.0,77,0.00,CLR,CLR,0.00,WeatherDisplay:10.37,2013-01-03 21:35:00,
2013-01-03 16:40:00,40.0,33.4,29.00,South,171,2.3,2.3,77,0.00,CLR,CLR,0.00,WeatherDisplay:10.37,2013-01-03 21:40:00,
2013-01-03 16:45:00,39.9,33.3,28.99,South,171,0.0,0.0,77,0.00,CLR,CLR,0.00,WeatherDisplay:10.37,2013-01-03 21:45:00,
2013-01-03 16:50:00,39.8,33.2,29.04,South,171,0.0,0.0,77,0.00,CLR,CLR,0.00,WeatherDisplay:10.37,2013-01-03 21:50:00,
2013-01-03 16:56:00,39.5,32.9,29.01,South,171,0.0,0.0,77,0.00,CLR,CLR,0.00,WeatherDisplay:10.37,2013-01-03 21:56:00,
2013-01-03 17:01:00,39.3,32.7,29.04,South,171,0.0,0.0,77,0.00,CLR,CLR,0.00,WeatherDisplay:10.37,2013-01-03 22:01:00,
2013-01-03 17:06:00,39.0,32.7,29.02,South,171,0.0,0.0,78,0.00,CLR,CLR,0.00,WeatherDisplay:10.37,2013-01-03 22:06:00,
2013-01-03 17:11:00,38.7,32.7,29.04,South,171,0.0,0.0,79,0.00,CLR,CLR,0.00,WeatherDisplay:10.37,2013-01-03 22:11:00,
2013-01-03 17:16:00,38.4,32.5,29.04,South,171,0.0,0.0,79,0.00,CLR,CLR,0.00,WeatherDisplay:10.37,2013-01-03 22:16:00,
2013-01-03 17:21:00,38.2,32.6,29.06,South,171,0.0,0.0,80,0.00,CLR,CLR,0.00,WeatherDisplay:10.37,2013-01-03 22:21:00,
2013-01-03 17:27:00,38.0,32.4,29.03,South,171,0.0,0.0,80,0.00,CLR,CLR,0.00,WeatherDisplay:10.37,2013-01-03 22:27:00,
2013-01-03 17:32:00,37.8,33.1,28.60,South,171,1.2,1.2,83,0.00,CLR,CLR,0.00,WeatherDisplay:10.37,2013-01-03 22:32:00,
2013-01-03 17:37:00,37.5,32.5,28.61,South,175,2.3,2.3,82,0.00,CLR,CLR,0.00,WeatherDisplay:10.37,2013-01-03 22:37:00,
2013-01-03 17:42:00,37.3,32.6,28.61,South,177,1.0,0.0,83,0.00,CLR,CLR,0.00,WeatherDisplay:10.37,2013-01-03 22:42:00,
2013-01-03 17:47:00,37.2,32.5,28.61,South,177,1.2,1.2,83,0.00,CLR,CLR,0.00,WeatherDisplay:10.37,2013-01-03 22:47:00,
2013-01-03 17:53:00,37.0,32.3,28.61,South,177,2.3,2.3,83,0.00,CLR,CLR,0.00,WeatherDisplay:10.37,2013-01-03 22:53:00,
2013-01-03 17:58:00,36.9,32.2,28.61,South,177,0.0,0.0,83,0.00,CLR,CLR,0.00,WeatherDisplay:10.37,2013-01-03 22:58:00,
2013-01-03 18:03:00,36.6,31.9,28.61,South,177,1.2,1.2,83,0.00,CLR,CLR,0.00,WeatherDisplay:10.37,2013-01-03 23:03:00,
2013-01-03 18:08:00,36.4,31.4,28.62,South,178,1.2,1.2,82,0.00,CLR,CLR,0.00,WeatherDisplay:10.37,2013-01-03 23:08:00,
2013-01-03 18:13:00,36.4,31.7,28.62,South,178,0.0,0.0,83,0.00,CLR,CLR,0.00,WeatherDisplay:10.37,2013-01-03 23:13:00,
2013-01-03 18:18:00,36.4,31.4,28.62,South,178,1.2,1.2,82,0.00,CLR,CLR,0.00,WeatherDisplay:10.37,2013-01-03 23:18:00,
2013-01-03 18:24:00,36.3,30.7,28.62,South,182,3.5,3.5,80,0.00,CLR,CLR,0.00,WeatherDisplay:10.37,2013-01-03 23:24:00,
2013-01-03 18:29:00,36.4,29.9,28.62,SW,234,3.5,3.5,77,0.00,CLR,CLR,0.00,WeatherDisplay:10.37,2013-01-03 23:29:00,
2013-01-03 18:34:00,36.5,29.3,28.62,West,276,5.8,5.8,75,0.00,CLR,CLR,0.00,WeatherDisplay:10.37,2013-01-03 23:34:00,
2013-01-03 18:39:00,36.6,27.7,28.62,WNW,293,4.6,4.6,70,0.00,CLR,CLR,0.00,WeatherDisplay:10.37,2013-01-03 23:39:00,
2013-01-03 18:45:00,36.6,27.4,28.62,WNW,291,3.5,3.5,69,0.00,CLR,CLR,0.00,WeatherDisplay:10.37,2013-01-03 23:45:00,
2013-01-03 18:50:00,36.5,26.6,28.62,WNW,291,1.2,1.2,67,0.00,CLR,CLR,0.00,WeatherDisplay:10.37,2013-01-03 23:50:00,
2013-01-03 18:55:00,36.3,27.1,28.62,WNW,291,2.3,2.3,69,0.00,CLR,CLR,0.00,WeatherDisplay:10.37,2013-01-03 23:55:00,
2013-01-03 19:00:00,36.1,27.3,28.62,WNW,291,1.2,1.2,70,0.00,CLR,CLR,0.00,WeatherDisplay:10.37,2013-01-04 00:00:00,
2013-01-03 19:05:00,36.0,27.2,28.62,WNW,291,2.3,2.3,70,0.00,CLR,CLR,0.00,WeatherDisplay:10.37,2013-01-04 00:05:00,
2013-01-03 19:10:00,35.7,26.2,28.62,WNW,287,0.0,0.0,68,0.00,CLR,CLR,0.00,WeatherDisplay:10.37,2013-01-04 00:10:00,
2013-01-03 19:15:00,35.6,25.7,28.62,West,281,3.5,3.5,67,0.00,CLR,CLR,0.00,WeatherDisplay:10.37,2013-01-04 00:15:00,
2013-01-03 19:21:00,35.4,25.2,28.63,West,281,3.5,3.5,66,0.00,CLR,CLR,0.00,WeatherDisplay:10.37,2013-01-04 00:21:00,
2013-01-03 19:26:00,35.3,25.1,28.63,West,277,2.3,2.3,66,0.00,CLR,CLR,0.00,WeatherDisplay:10.37,2013-01-04 00:26:00,
2013-01-03 19:31:00,35.0,25.1,28.63,West,277,2.3,2.3,67,0.00,CLR,CLR,0.00,WeatherDisplay:10.37,2013-01-04 00:31:00,
2013-01-03 19:36:00,34.8,24.6,28.63,West,277,2.3,2.3,66,0.00,CLR,CLR,0.00,WeatherDisplay:10.37,2013-01-04 00:36:00,
2013-01-03 19:41:00,34.7,23.8,28.63,West,277,0.0,0.0,64,0.00,CLR,CLR,0.00,WeatherDisplay:10.37,2013-01-04 00:41:00,
2013-01-03 19:46:00,34.6,24.0,28.63,West,277,1.2,1.2,65,0.00,CLR,CLR,0.00,WeatherDisplay:10.37,2013-01-04 00:46:00,
2013-01-03 19:52:00,34.3,23.7,28.64,West,277,0.0,0.0,65,0.00,CLR,CLR,0.00,WeatherDisplay:10.37,2013-01-04 00:52:00,
2013-01-03 19:57:00,34.2,23.7,28.64,West,277,2.3,2.3,65,0.00,CLR,CLR,0.00,WeatherDisplay:10.37,2013-01-04 00:57:00,
2013-01-03 20:02:00,34.1,23.6,28.64,West,261,2.3,2.3,65,0.00,CLR,CLR,0.00,WeatherDisplay:10.37,2013-01-04 01:02:00,
2013-01-03 20:07:00,34.1,23.2,28.63,WSW,249,3.5,3.5,64,0.00,CLR,CLR,0.00,WeatherDisplay:10.37,2013-01-04 01:07:00,
2013-01-03 20:13:00,34.1,23.6,28.64,SSW,210,2.3,2.3,65,0.00,CLR,CLR,0.00,WeatherDisplay:10.37,2013-01-04 01:13:00,
2013-01-03 20:18:00,34.1,23.2,28.64,SSW,211,3.5,3.5,64,0.00,CLR,CLR,0.00,WeatherDisplay:10.37,2013-01-04 01:18:00,
2013-01-03 20:23:00,34.2,22.9,28.64,SSW,211,1.2,1.2,63,0.00,CLR,CLR,0.00,WeatherDisplay:10.37,2013-01-04 01:23:00,
2013-01-03 20:28:00,34.2,23.3,28.63,SSW,211,1.2,0.0,64,0.00,CLR,CLR,0.00,WeatherDisplay:10.37,2013-01-04 01:28:00,
2013-01-03 20:33:00,34.1,23.2,28.64,SSW,212,3.5,3.5,64,0.00,CLR,CLR,0.00,WeatherDisplay:10.37,2013-01-04 01:33:00,
2013-01-03 20:38:00,34.0,23.5,28.64,SW,232,4.6,4.6,65,0.00,CLR,CLR,0.00,WeatherDisplay:10.37,2013-01-04 01:38:00,
2013-01-03 20:44:00,33.9,23.7,28.64,SW,234,3.5,3.5,66,0.00,CLR,CLR,0.00,WeatherDisplay:10.37,2013-01-04 01:44:00,
2013-01-03 20:49:00,33.7,23.5,28.64,SW,235,3.5,3.5,66,0.00,CLR,CLR,0.00,WeatherDisplay:10.37,2013-01-04 01:49:00,
2013-01-03 20:54:00,33.7,23.5,28.64,WSW,245,3.5,3.5,66,0.00,CLR,CLR,0.00,WeatherDisplay:10.37,2013-01-04 01:54:00,
2013-01-03 20:59:00,33.5,23.7,28.64,WSW,245,2.3,2.3,67,0.00,CLR,CLR,0.00,WeatherDisplay:10.37,2013-01-04 01:59:00,
2013-01-03 21:04:00,33.3,23.9,28.64,WSW,245,1.2,1.2,68,0.00,CLR,CLR,0.00,WeatherDisplay:10.37,2013-01-04 02:04:00,
2013-01-03 21:10:00,33.2,23.4,28.64,WSW,245,2.3,2.3,67,0.00,CLR,CLR,0.00,WeatherDisplay:10.37,2013-01-04 02:10:00,
2013-01-03 21:15:00,33.2,23.8,28.64,WSW,247,3.5,3.5,68,0.00,CLR,CLR,0.00,WeatherDisplay:10.37,2013-01-04 02:15:00,
2013-01-03 21:20:00,33.2,23.8,28.64,WSW,247,3.5,3.5,68,0.00,CLR,CLR,0.00,WeatherDisplay:10.37,2013-01-04 02:20:00,
2013-01-03 21:25:00,33.2,23.8,28.64,WSW,240,3.5,3.5,68,0.00,CLR,CLR,0.00,WeatherDisplay:10.37,2013-01-04 02:25:00,
2013-01-03 21:30:00,33.1,23.7,28.64,WSW,240,3.5,3.5,68,0.00,CLR,CLR,0.00,WeatherDisplay:10.37,2013-01-04 02:30:00,
2013-01-03 21:36:00,33.0,23.9,28.64,WSW,240,1.2,1.2,69,0.00,CLR,CLR,0.00,WeatherDisplay:10.37,2013-01-04 02:36:00,
2013-01-03 21:41:00,33.2,23.8,28.64,SW,224,3.5,3.5,68,0.00,CLR,CLR,0.00,WeatherDisplay:10.37,2013-01-04 02:41:00,
2013-01-03 21:46:00,33.2,23.8,28.64,SW,224,2.3,2.3,68,0.00,CLR,CLR,0.00,WeatherDisplay:10.37,2013-01-04 02:46:00,
2013-01-03 21:51:00,33.2,23.8,28.64,SW,224,0.0,0.0,68,0.00,CLR,CLR,0.00,WeatherDisplay:10.37,2013-01-04 02:51:00,
2013-01-03 21:56:00,33.2,23.4,28.64,SW,229,3.5,3.5,67,0.00,CLR,CLR,0.00,WeatherDisplay:10.37,2013-01-04 02:56:00,
2013-01-03 22:01:00,33.3,23.5,28.64,WSW,238,2.3,2.3,67,0.00,CLR,CLR,0.00,WeatherDisplay:10.37,2013-01-04 03:01:00,
2013-01-03 22:07:00,33.3,23.5,28.65,WSW,238,3.5,3.5,67,0.00,CLR,CLR,0.00,WeatherDisplay:10.37,2013-01-04 03:07:00,
2013-01-03 22:12:00,33.4,23.6,28.65,WSW,238,2.3,2.3,67,0.00,CLR,CLR,0.00,WeatherDisplay:10.37,2013-01-04 03:12:00,
2013-01-03 22:17:00,33.3,23.5,28.65,SW,226,6.9,6.9,67,0.00,CLR,CLR,0.00,WeatherDisplay:10.37,2013-01-04 03:17:00,
2013-01-03 22:22:00,33.4,23.3,28.65,SW,214,5.0,5.0,66,0.00,CLR,CLR,0.00,WeatherDisplay:10.37,2013-01-04 03:22:00,
2013-01-03 22:27:00,33.4,23.3,28.65,SW,216,1.2,1.2,66,0.00,CLR,CLR,0.00,WeatherDisplay:10.37,2013-01-04 03:27:00,
2013-01-03 22:33:00,33.3,23.2,28.65,SW,215,2.3,2.3,66,0.00,CLR,CLR,0.00,WeatherDisplay:10.37,2013-01-04 03:33:00,
2013-01-03 22:38:00,33.2,23.1,28.65,SSW,213,3.5,3.5,66,0.00,CLR,CLR,0.00,WeatherDisplay:10.37,2013-01-04 03:38:00,
2013-01-03 22:43:00,33.2,23.1,28.65,SW,214,4.6,4.6,66,0.00,CLR,CLR,0.00,WeatherDisplay:10.37,2013-01-04 03:43:00,
2013-01-03 22:48:00,33.1,23.0,28.65,SSW,207,3.5,3.5,66,0.00,CLR,CLR,0.00,WeatherDisplay:10.37,2013-01-04 03:48:00,
2013-01-03 22:53:00,33.1,23.0,28.65,SSW,196,1.2,1.2,66,0.00,CLR,CLR,0.00,WeatherDisplay:10.37,2013-01-04 03:53:00,
2013-01-03 22:58:00,33.1,23.0,28.65,SW,227,5.8,5.8,66,0.00,CLR,CLR,0.00,WeatherDisplay:10.37,2013-01-04 03:58:00,
2013-01-03 23:03:00,33.2,23.1,28.65,SW,230,4.6,4.6,66,0.00,CLR,CLR,0.00,WeatherDisplay:10.37,2013-01-04 04:03:00,
2013-01-03 23:08:00,33.2,23.1,28.65,SW,231,3.5,3.5,66,0.00,CLR,CLR,0.00,WeatherDisplay:10.37,2013-01-04 04:08:00,
2013-01-03 23:13:00,33.2,23.1,28.65,SSW,208,6.0,6.0,66,0.00,CLR,CLR,0.00,WeatherDisplay:10.37,2013-01-04 04:13:00,
2013-01-03 23:19:00,33.1,23.0,28.65,SSW,206,2.3,0.0,66,0.00,CLR,CLR,0.00,WeatherDisplay:10.37,2013-01-04 04:19:00,
2013-01-03 23:24:00,33.0,22.9,28.65,SW,232,5.8,5.8,66,0.00,CLR,CLR,0.00,WeatherDisplay:10.37,2013-01-04 04:24:00,
2013-01-03 23:29:00,33.0,22.9,28.65,SSW,200,3.5,3.5,66,0.00,CLR,CLR,0.00,WeatherDisplay:10.37,2013-01-04 04:29:00,
2013-01-03 23:34:00,32.8,22.7,28.65,SSW,201,0.0,0.0,66,0.00,CLR,CLR,0.00,WeatherDisplay:10.37,2013-01-04 04:34:00,
2013-01-03 23:39:00,32.8,22.7,28.65,SW,230,4.6,4.6,66,0.00,CLR,CLR,0.00,WeatherDisplay:10.37,2013-01-04 04:39:00,
2013-01-03 23:44:00,32.9,22.8,28.65,SW,235,3.5,3.5,66,0.00,CLR,CLR,0.00,WeatherDisplay:10.37,2013-01-04 04:44:00,
2013-01-03 23:49:00,33.0,22.9,28.64,West,269,3.5,3.5,66,0.00,CLR,CLR,0.00,WeatherDisplay:10.37,2013-01-04 04:49:00,
2013-01-03 23:54:00,33.0,22.5,28.64,SSW,198,2.3,2.3,65,0.00,CLR,CLR,0.00,WeatherDisplay:10.37,2013-01-04 04:54:00,
2013-01-03 23:59:00,33.0,22.5,28.64,West,262,3.5,3.5,65,0.00,CLR,CLR,0.00,WeatherDisplay:10.37,2013-01-04 04:59:00,